• Join FlightAware (Why Join?)
  • Login
  • US Flag 
01:59PM EDT


 

Airport Tracker/Info


-or-


 

Live Flight TrackerFlight Track Log ✈ N789AM ✈ 15-Jun-2013 ✈ KALB - KDXR

Flight Track Log - Related Links

Times and Time Zones

All times are in EDT time to prevent confusion due to time zone crossing. See the N789AM flight status page for this flight to view local times or setup timezone preferences in your user account.

Time Position Orientation Groundspeed Altitude Reporting Facility
EDT Latitude Longitude Course Direction KTS MPH feet Rate Location/Type
02:41PM 42.6236 -73.7889 173° South 134 154 5,100  Level Boston Center
02:42PM 42.5842 -73.7822 173° South 142 163 5,900 660 Climbing Boston Center
02:43PM 42.5447 -73.7703 167° South 143 165 6,500 540 Climbing Boston Center
02:44PM 42.5033 -73.7525 162° South 161 185 7,000 540 Climbing Boston Center
02:45PM 42.4617 -73.7403 168° South 160 184 7,700 600 Climbing Boston Center
02:46PM 42.4203 -73.7281 168° South 153 176 8,300 540 Climbing Boston Center
02:47PM 42.3767 -73.7106 163° South 165 190 8,800 420 Climbing Boston Center
02:48PM 42.3456 -73.7042 171° South 173 199 9,000 300 Climbing Boston Center
02:49PM 42.2997 -73.7006 177° South 173 199 9,300 300 Climbing Boston Center
02:50PM 42.2539 -73.6883 169° South 173 199 9,600  Climbing Boston Center
02:51PM 42.2061 -73.6844 177° South 173 199 9,400 -300 Descending Boston Center
02:52PM 42.1539 -73.6750 172° South 180 207 9,100  Descending Boston Center
02:53PM 42.1083 -73.6631 169° South 180 207 9,500 120 Climbing Boston Center
02:54PM 42.0583 -73.6508 170° South 180 207 9,400  Descending Boston Center
02:55PM 42.0086 -73.6386 170° South 180 207 9,500  Climbing Boston Center
02:56PM 41.9503 -73.6236 169° South 180 207 9,400 -60 Descending Boston Center
02:57PM 41.9067 -73.6144 171° South 180 207 9,400 -60 Level Boston Center
02:58PM 41.8464 -73.5967 168° South 186 214 9,300  Descending Boston Center
02:59PM 41.7922 -73.5844 170° South 179 206 9,400 -240 Climbing Boston Center
03:00PM 41.7425 -73.5725 170° South 179 206 8,900 -720 Descending Boston Center
03:01PM 41.6906 -73.5606 170° South 185 213 8,000 -1,080 Descending Boston Center
03:04PM 41.5667 -73.5333 171° South 184 212 5,200 -1,320 Descending New York TRACON
03:05PM 41.5167 -73.5167 166° South 185 213 3,600 -1,380 Descending New York TRACON
03:06PM 41.4667 -73.5000 166° South 174 200 2,500 -840 Descending New York TRACON
03:07PM 41.4167 -73.4833 166° South 158 182 2,000 -600 Descending New York TRACON
03:08PM 41.3833 -73.4667 159° South 140 161 1,400 -600 Descending New York TRACON
03:10PM 41.3667 -73.4667 166° South  Level FlightAware Approximate
03:17PM 41.3715 -73.4822 166° South  Level Estimated
03:18PM 41.3715 -73.4822 166° South  Level Estimated
03:19PM 41.3715 -73.4822 166° South  Level Estimated